sensor_id;sensor_type;location;lat;lon;timestamp;pressure;altitude;pressure_sealevel;temperature;humidity
54262;BME280;40174;52.364;6.452;2023-08-17T00:02:12;101915.78;;;17.94;100.00
54262;BME280;40174;52.364;6.452;2023-08-17T00:04:39;101907.91;;;17.92;100.00
54262;BME280;40174;52.364;6.452;2023-08-17T00:07:06;101900.72;;;17.93;100.00
54262;BME280;40174;52.364;6.452;2023-08-17T00:09:32;101893.69;;;17.92;100.00
54262;BME280;40174;52.364;6.452;2023-08-17T00:11:59;101894.38;;;17.94;100.00
54262;BME280;40174;52.364;6.452;2023-08-17T00:14:26;101879.63;;;17.90;100.00
54262;BME280;40174;52.364;6.452;2023-08-17T00:16:53;101876.25;;;17.88;100.00
54262;BME280;40174;52.364;6.452;2023-08-17T00:19:21;101874.72;;;17.85;100.00
54262;BME280;40174;52.364;6.452;2023-08-17T00:21:47;101863.72;;;17.78;100.00
54262;BME280;40174;52.364;6.452;2023-08-17T00:24:14;101865.13;;;17.73;100.00
54262;BME280;40174;52.364;6.452;2023-08-17T00:26:41;101877.53;;;17.74;100.00
54262;BME280;40174;52.364;6.452;2023-08-17T00:29:07;101885.09;;;17.69;100.00
54262;BME280;40174;52.364;6.452;2023-08-17T00:31:34;101879.94;;;17.67;100.00
54262;BME280;40174;52.364;6.452;2023-08-17T00:34:01;101890.88;;;17.64;100.00
54262;BME280;40174;52.364;6.452;2023-08-17T00:36:29;101893.16;;;17.59;100.00
54262;BME280;40174;52.364;6.452;2023-08-17T00:38:55;101895.44;;;17.54;100.00
54262;BME280;40174;52.364;6.452;2023-08-17T00:41:22;101889.38;;;17.52;100.00
54262;BME280;40174;52.364;6.452;2023-08-17T00:43:49;101888.69;;;17.50;100.00
54262;BME280;40174;52.364;6.452;2023-08-17T00:46:16;101890.78;;;17.46;100.00
54262;BME280;40174;52.364;6.452;2023-08-17T00:48:45;101897.00;;;17.47;100.00
54262;BME280;40174;52.364;6.452;2023-08-17T00:51:13;101893.03;;;17.41;100.00
54262;BME280;40174;52.364;6.452;2023-08-17T00:53:42;101884.19;;;17.40;100.00
54262;BME280;40174;52.364;6.452;2023-08-17T00:56:09;101894.31;;;17.37;100.00
54262;BME280;40174;52.364;6.452;2023-08-17T00:58:35;101874.63;;;17.38;100.00
54262;BME280;40174;52.364;6.452;2023-08-17T01:01:02;101871.38;;;17.34;100.00
54262;BME280;40174;52.364;6.452;2023-08-17T01:03:29;101863.09;;;17.28;100.00
54262;BME280;40174;52.364;6.452;2023-08-17T01:05:56;101868.56;;;17.26;100.00
54262;BME280;40174;52.364;6.452;2023-08-17T01:08:23;101861.44;;;17.27;100.00
54262;BME280;40174;52.364;6.452;2023-08-17T01:10:57;101867.31;;;17.20;100.00
54262;BME280;40174;52.364;6.452;2023-08-17T01:13:32;101860.84;;;17.23;100.00
54262;BME280;40174;52.364;6.452;2023-08-17T01:16:02;101867.75;;;17.16;100.00
54262;BME280;40174;52.364;6.452;2023-08-17T01:18:33;101874.47;;;17.10;100.00
54262;BME280;40174;52.364;6.452;2023-08-17T01:21:02;101856.22;;;17.06;100.00
54262;BME280;40174;52.364;6.452;2023-08-17T01:23:32;101857.22;;;17.04;100.00
54262;BME280;40174;52.364;6.452;2023-08-17T01:25:59;101864.09;;;17.07;100.00
54262;BME280;40174;52.364;6.452;2023-08-17T01:28:25;101865.22;;;17.04;100.00
54262;BME280;40174;52.364;6.452;2023-08-17T01:30:55;101862.13;;;17.09;100.00
54262;BME280;40174;52.364;6.452;2023-08-17T01:33:27;101858.19;;;17.13;100.00
54262;BME280;40174;52.364;6.452;2023-08-17T01:36:03;101859.31;;;17.11;100.00
54262;BME280;40174;52.364;6.452;2023-08-17T01:38:33;101853.28;;;17.09;100.00
54262;BME280;40174;52.364;6.452;2023-08-17T01:41:01;101862.00;;;17.11;100.00
54262;BME280;40174;52.364;6.452;2023-08-17T01:43:29;101863.09;;;17.08;100.00
54262;BME280;40174;52.364;6.452;2023-08-17T01:45:56;101867.34;;;17.11;100.00
54262;BME280;40174;52.364;6.452;2023-08-17T01:48:23;101860.44;;;17.08;100.00
54262;BME280;40174;52.364;6.452;2023-08-17T01:50:49;101864.81;;;17.09;100.00
54262;BME280;40174;52.364;6.452;2023-08-17T01:53:19;101867.59;;;17.08;100.00
54262;BME280;40174;52.364;6.452;2023-08-17T01:55:47;101848.50;;;17.02;100.00
54262;BME280;40174;52.364;6.452;2023-08-17T01:58:14;101841.31;;;17.03;100.00
54262;BME280;40174;52.364;6.452;2023-08-17T02:00:41;101841.44;;;17.01;100.00
54262;BME280;40174;52.364;6.452;2023-08-17T02:03:08;101834.13;;;17.03;100.00
54262;BME280;40174;52.364;6.452;2023-08-17T02:05:35;101835.84;;;17.04;100.00
54262;BME280;40174;52.364;6.452;2023-08-17T02:08:01;101834.84;;;17.06;100.00
54262;BME280;40174;52.364;6.452;2023-08-17T02:10:28;101832.88;;;17.08;100.00
54262;BME280;40174;52.364;6.452;2023-08-17T02:12:56;101840.34;;;17.04;100.00
54262;BME280;40174;52.364;6.452;2023-08-17T02:15:23;101835.28;;;17.01;100.00
54262;BME280;40174;52.364;6.452;2023-08-17T02:17:49;101839.06;;;16.98;100.00
54262;BME280;40174;52.364;6.452;2023-08-17T02:20:16;101844.97;;;16.92;100.00
54262;BME280;40174;52.364;6.452;2023-08-17T02:22:43;101840.63;;;16.91;100.00
54262;BME280;40174;52.364;6.452;2023-08-17T02:25:10;101846.66;;;16.93;100.00
54262;BME280;40174;52.364;6.452;2023-08-17T02:27:36;101841.47;;;16.92;100.00
54262;BME280;40174;52.364;6.452;2023-08-17T02:30:06;101840.50;;;16.93;100.00
54262;BME280;40174;52.364;6.452;2023-08-17T02:32:33;101847.78;;;16.91;100.00
54262;BME280;40174;52.364;6.452;2023-08-17T02:34:59;101846.94;;;16.90;100.00
54262;BME280;40174;52.364;6.452;2023-08-17T02:37:26;101837.66;;;16.85;100.00
54262;BME280;40174;52.364;6.452;2023-08-17T02:39:53;101839.91;;;16.79;100.00
54262;BME280;40174;52.364;6.452;2023-08-17T02:42:20;101842.69;;;16.78;100.00
54262;BME280;40174;52.364;6.452;2023-08-17T02:44:48;101835.94;;;16.74;100.00
54262;BME280;40174;52.364;6.452;2023-08-17T02:47:16;101844.94;;;16.73;100.00
54262;BME280;40174;52.364;6.452;2023-08-17T02:49:42;101838.91;;;16.71;100.00
54262;BME280;40174;52.364;6.452;2023-08-17T02:52:09;101825.53;;;16.71;100.00
54262;BME280;40174;52.364;6.452;2023-08-17T02:54:36;101826.25;;;16.73;100.00
54262;BME280;40174;52.364;6.452;2023-08-17T02:57:03;101822.00;;;16.70;100.00
54262;BME280;40174;52.364;6.452;2023-08-17T02:59:29;101818.38;;;16.71;100.00
54262;BME280;40174;52.364;6.452;2023-08-17T03:01:57;101813.88;;;16.72;100.00
54262;BME280;40174;52.364;6.452;2023-08-17T03:04:26;101807.16;;;16.77;100.00
54262;BME280;40174;52.364;6.452;2023-08-17T03:06:55;101808.00;;;16.68;100.00
54262;BME280;40174;52.364;6.452;2023-08-17T03:09:22;101805.88;;;16.72;100.00
54262;BME280;40174;52.364;6.452;2023-08-17T03:11:48;101811.50;;;16.69;100.00
54262;BME280;40174;52.364;6.452;2023-08-17T03:14:15;101808.81;;;16.69;100.00
54262;BME280;40174;52.364;6.452;2023-08-17T03:16:42;101808.00;;;16.68;100.00
54262;BME280;40174;52.364;6.452;2023-08-17T03:19:08;101817.09;;;16.66;100.00
54262;BME280;40174;52.364;6.452;2023-08-17T03:21:38;101816.13;;;16.67;100.00
54262;BME280;40174;52.364;6.452;2023-08-17T03:24:06;101807.28;;;16.66;100.00
54262;BME280;40174;52.364;6.452;2023-08-17T03:26:33;101805.72;;;16.63;100.00
54262;BME280;40174;52.364;6.452;2023-08-17T03:29:00;101809.38;;;16.53;100.00
54262;BME280;40174;52.364;6.452;2023-08-17T03:31:26;101815.97;;;16.58;100.00
54262;BME280;40174;52.364;6.452;2023-08-17T03:33:54;101812.03;;;16.62;100.00
54262;BME280;40174;52.364;6.452;2023-08-17T03:36:22;101813.03;;;16.61;100.00
54262;BME280;40174;52.364;6.452;2023-08-17T03:38:50;101826.09;;;16.65;100.00
54262;BME280;40174;52.364;6.452;2023-08-17T03:41:18;101836.91;;;16.63;100.00
54262;BME280;40174;52.364;6.452;2023-08-17T03:43:45;101833.53;;;16.61;100.00
54262;BME280;40174;52.364;6.452;2023-08-17T03:46:13;101831.44;;;16.65;100.00
54262;BME280;40174;52.364;6.452;2023-08-17T03:48:39;101829.72;;;16.63;100.00
54262;BME280;40174;52.364;6.452;2023-08-17T03:51:06;101828.75;;;16.65;100.00
54262;BME280;40174;52.364;6.452;2023-08-17T03:53:33;101819.06;;;16.63;100.00
54262;BME280;40174;52.364;6.452;2023-08-17T03:56:01;101824.69;;;16.60;100.00
54262;BME280;40174;52.364;6.452;2023-08-17T03:58:28;101826.38;;;16.61;100.00
54262;BME280;40174;52.364;6.452;2023-08-17T04:00:58;101837.59;;;16.65;100.00
54262;BME280;40174;52.364;6.452;2023-08-17T04:03:28;101831.56;;;16.63;100.00
54262;BME280;40174;52.364;6.452;2023-08-17T04:05:55;101835.94;;;16.64;100.00
54262;BME280;40174;52.364;6.452;2023-08-17T04:08:21;101832.28;;;16.65;100.00
54262;BME280;40174;52.364;6.452;2023-08-17T04:10:48;101832.13;;;16.67;100.00
54262;BME280;40174;52.364;6.452;2023-08-17T04:13:16;101838.19;;;16.69;100.00
54262;BME280;40174;52.364;6.452;2023-08-17T04:15:43;101839.31;;;16.66;100.00
54262;BME280;40174;52.364;6.452;2023-08-17T04:18:10;101834.94;;;16.65;100.00
54262;BME280;40174;52.364;6.452;2023-08-17T04:20:36;101833.41;;;16.62;100.00
54262;BME280;40174;52.364;6.452;2023-08-17T04:23:03;101820.75;;;16.65;100.00
54262;BME280;40174;52.364;6.452;2023-08-17T04:25:31;101815.41;;;16.65;100.00
54262;BME280;40174;52.364;6.452;2023-08-17T04:27:58;101816.66;;;16.60;100.00
54262;BME280;40174;52.364;6.452;2023-08-17T04:30:26;101813.03;;;16.61;100.00
54262;BME280;40174;52.364;6.452;2023-08-17T04:32:58;101813.16;;;16.60;100.00
54262;BME280;40174;52.364;6.452;2023-08-17T04:35:25;101814.28;;;16.57;100.00
54262;BME280;40174;52.364;6.452;2023-08-17T04:37:52;101811.88;;;16.54;100.00
54262;BME280;40174;52.364;6.452;2023-08-17T04:40:19;101819.06;;;16.54;100.00
54262;BME280;40174;52.364;6.452;2023-08-17T04:42:46;101812.75;;;16.55;100.00
54262;BME280;40174;52.364;6.452;2023-08-17T04:45:13;101810.91;;;16.55;100.00
54262;BME280;40174;52.364;6.452;2023-08-17T04:47:44;101809.91;;;16.56;100.00
54262;BME280;40174;52.364;6.452;2023-08-17T04:50:11;101815.25;;;16.56;100.00
54262;BME280;40174;52.364;6.452;2023-08-17T04:52:42;101805.16;;;16.60;100.00
54262;BME280;40174;52.364;6.452;2023-08-17T04:55:08;101814.13;;;16.59;100.00
54262;BME280;40174;52.364;6.452;2023-08-17T04:57:35;101807.84;;;16.60;100.00
54262;BME280;40174;52.364;6.452;2023-08-17T05:00:02;101807.97;;;16.58;100.00
54262;BME280;40174;52.364;6.452;2023-08-17T05:02:29;101810.50;;;16.60;100.00
54262;BME280;40174;52.364;6.452;2023-08-17T05:04:58;101803.47;;;16.59;100.00
54262;BME280;40174;52.364;6.452;2023-08-17T05:07:25;101804.44;;;16.58;100.00
54262;BME280;40174;52.364;6.452;2023-08-17T05:09:53;101807.97;;;16.58;100.00
54262;BME280;40174;52.364;6.452;2023-08-17T05:12:20;101805.03;;;16.61;100.00
54262;BME280;40174;52.364;6.452;2023-08-17T05:14:47;101802.78;;;16.57;100.00
54262;BME280;40174;52.364;6.452;2023-08-17T05:17:14;101791.41;;;16.55;100.00
54262;BME280;40174;52.364;6.452;2023-08-17T05:19:40;101799.13;;;16.58;100.00
54262;BME280;40174;52.364;6.452;2023-08-17T05:22:11;101793.06;;;16.56;100.00
54262;BME280;40174;52.364;6.452;2023-08-17T05:24:38;101790.97;;;16.59;100.00
54262;BME280;40174;52.364;6.452;2023-08-17T05:27:06;101786.34;;;16.61;100.00
54262;BME280;40174;52.364;6.452;2023-08-17T05:29:33;101787.31;;;16.60;100.00
54262;BME280;40174;52.364;6.452;2023-08-17T05:32:00;101792.38;;;16.63;100.00
54262;BME280;40174;52.364;6.452;2023-08-17T05:34:27;101790.81;;;16.61;100.00
54262;BME280;40174;52.364;6.452;2023-08-17T05:36:54;101799.53;;;16.63;100.00
54262;BME280;40174;52.364;6.452;2023-08-17T05:39:23;101799.94;;;16.58;100.00
54262;BME280;40174;52.364;6.452;2023-08-17T05:41:49;101806.69;;;16.62;100.00
54262;BME280;40174;52.364;6.452;2023-08-17T05:44:16;101803.03;;;16.63;100.00
54262;BME280;40174;52.364;6.452;2023-08-17T05:46:43;101803.03;;;16.63;100.00
54262;BME280;40174;52.364;6.452;2023-08-17T05:49:09;101800.13;;;16.67;100.00
54262;BME280;40174;52.364;6.452;2023-08-17T05:51:36;101789.31;;;16.68;100.00
54262;BME280;40174;52.364;6.452;2023-08-17T05:54:03;101794.66;;;16.68;100.00
54262;BME280;40174;52.364;6.452;2023-08-17T05:56:32;101792.94;;;16.67;100.00
54262;BME280;40174;52.364;6.452;2023-08-17T05:58:59;101791.09;;;16.68;100.00
54262;BME280;40174;52.364;6.452;2023-08-17T06:01:26;101792.22;;;16.65;100.00
54262;BME280;40174;52.364;6.452;2023-08-17T06:03:52;101792.66;;;16.70;100.00
54262;BME280;40174;52.364;6.452;2023-08-17T06:06:19;101799.28;;;16.76;100.00
54262;BME280;40174;52.364;6.452;2023-08-17T06:08:46;101800.94;;;16.77;100.00
54262;BME280;40174;52.364;6.452;2023-08-17T06:11:12;101797.88;;;16.81;100.00
54262;BME280;40174;52.364;6.452;2023-08-17T06:13:40;101797.88;;;16.81;100.00
54262;BME280;40174;52.364;6.452;2023-08-17T06:16:07;101807.31;;;16.86;100.00
54262;BME280;40174;52.364;6.452;2023-08-17T06:18:34;101803.66;;;16.87;100.00
54262;BME280;40174;52.364;6.452;2023-08-17T06:21:00;101820.09;;;16.92;100.00
54262;BME280;40174;52.364;6.452;2023-08-17T06:23:27;101808.28;;;16.94;100.00
54262;BME280;40174;52.364;6.452;2023-08-17T06:25:56;101814.19;;;16.98;100.00
54262;BME280;40174;52.364;6.452;2023-08-17T06:28:23;101811.53;;;16.98;100.00
54262;BME280;40174;52.364;6.452;2023-08-17T06:30:52;101812.78;;;17.03;100.00
54262;BME280;40174;52.364;6.452;2023-08-17T06:33:19;101812.50;;;17.07;100.00
54262;BME280;40174;52.364;6.452;2023-08-17T06:35:46;101811.50;;;17.08;100.00
54262;BME280;40174;52.364;6.452;2023-08-17T06:38:13;101815.19;;;17.07;100.00
54262;BME280;40174;52.364;6.452;2023-08-17T06:40:39;101813.34;;;17.07;100.00
54262;BME280;40174;52.364;6.452;2023-08-17T06:43:06;101808.97;;;17.06;100.00
54262;BME280;40174;52.364;6.452;2023-08-17T06:45:33;101802.66;;;17.07;100.00
54262;BME280;40174;52.364;6.452;2023-08-17T06:48:01;101819.25;;;17.11;100.00
54262;BME280;40174;52.364;6.452;2023-08-17T06:50:28;101822.47;;;17.14;100.00
54262;BME280;40174;52.364;6.452;2023-08-17T06:52:55;101816.16;;;17.15;100.00
54262;BME280;40174;52.364;6.452;2023-08-17T06:55:21;101816.13;;;17.25;100.00
54262;BME280;40174;52.364;6.452;2023-08-17T06:57:48;101812.34;;;17.28;100.00
54262;BME280;40174;52.364;6.452;2023-08-17T07:00:17;101829.63;;;17.33;100.00
54262;BME280;40174;52.364;6.452;2023-08-17T07:02:45;101823.84;;;17.38;100.00
54262;BME280;40174;52.364;6.452;2023-08-17T07:05:14;101823.84;;;17.38;100.00
54262;BME280;40174;52.364;6.452;2023-08-17T07:07:41;101828.06;;;17.40;100.00
54262;BME280;40174;52.364;6.452;2023-08-17T07:10:08;101827.06;;;17.41;100.00
54262;BME280;40174;52.364;6.452;2023-08-17T07:12:35;101829.47;;;17.44;100.00
54262;BME280;40174;52.364;6.452;2023-08-17T07:15:02;101837.59;;;17.53;100.00
54262;BME280;40174;52.364;6.452;2023-08-17T07:17:30;101835.75;;;17.53;100.00
54262;BME280;40174;52.364;6.452;2023-08-17T07:19:56;101837.16;;;17.57;100.00
54262;BME280;40174;52.364;6.452;2023-08-17T07:22:25;101835.75;;;17.63;100.00
54262;BME280;40174;52.364;6.452;2023-08-17T07:24:51;101843.63;;;17.64;100.00
54262;BME280;40174;52.364;6.452;2023-08-17T07:27:18;101844.16;;;17.68;100.00
54262;BME280;40174;52.364;6.452;2023-08-17T07:29:44;101846.00;;;17.67;100.00
54262;BME280;40174;52.364;6.452;2023-08-17T07:32:11;101851.06;;;17.71;100.00
54262;BME280;40174;52.364;6.452;2023-08-17T07:34:38;101856.25;;;17.72;100.00
54262;BME280;40174;52.364;6.452;2023-08-17T07:37:04;101854.03;;;17.67;100.00
54262;BME280;40174;52.364;6.452;2023-08-17T07:39:32;101854.72;;;17.70;100.00
54262;BME280;40174;52.364;6.452;2023-08-17T07:41:59;101847.53;;;17.70;100.00
54262;BME280;40174;52.364;6.452;2023-08-17T07:44:26;101853.47;;;17.74;100.00
54262;BME280;40174;52.364;6.452;2023-08-17T07:46:54;101858.38;;;17.78;100.00
54262;BME280;40174;52.364;6.452;2023-08-17T07:49:20;101867.81;;;17.82;100.00
54262;BME280;40174;52.364;6.452;2023-08-17T07:51:48;101854.84;;;17.88;100.00
54262;BME280;40174;52.364;6.452;2023-08-17T07:54:15;101859.38;;;17.87;100.00
54262;BME280;40174;52.364;6.452;2023-08-17T07:56:43;101857.34;;;17.89;100.00
54262;BME280;40174;52.364;6.452;2023-08-17T07:59:10;101858.75;;;17.93;100.00
54262;BME280;40174;52.364;6.452;2023-08-17T08:01:36;101856.50;;;17.98;100.00
54262;BME280;40174;52.364;6.452;2023-08-17T08:04:05;101853.66;;;18.00;100.00
54262;BME280;40174;52.364;6.452;2023-08-17T08:06:32;101867.72;;;18.02;100.00
54262;BME280;40174;52.364;6.452;2023-08-17T08:08:59;101858.03;;;18.01;100.00
54262;BME280;40174;52.364;6.452;2023-08-17T08:11:26;101860.00;;;17.99;100.00
54262;BME280;40174;52.364;6.452;2023-08-17T08:13:56;101863.22;;;18.02;100.00
54262;BME280;40174;52.364;6.452;2023-08-17T08:16:23;101867.47;;;18.05;100.00
54262;BME280;40174;52.364;6.452;2023-08-17T08:18:50;101865.19;;;18.10;100.00
54262;BME280;40174;52.364;6.452;2023-08-17T08:21:16;101859.97;;;18.08;100.00
54262;BME280;40174;52.364;6.452;2023-08-17T08:23:43;101860.53;;;18.12;100.00
54262;BME280;40174;52.364;6.452;2023-08-17T08:26:10;101861.06;;;18.16;100.00
54262;BME280;40174;52.364;6.452;2023-08-17T08:28:37;101863.84;;;18.24;100.00
54262;BME280;40174;52.364;6.452;2023-08-17T08:31:05;101864.69;;;18.24;100.00
54262;BME280;40174;52.364;6.452;2023-08-17T08:33:31;101868.03;;;18.26;100.00
54262;BME280;40174;52.364;6.452;2023-08-17T08:35:58;101874.34;;;18.35;100.00
54262;BME280;40174;52.364;6.452;2023-08-17T08:38:25;101876.38;;;18.51;100.00
54262;BME280;40174;52.364;6.452;2023-08-17T08:40:51;101871.25;;;18.58;100.00
54262;BME280;40174;52.364;6.452;2023-08-17T08:43:19;101875.56;;;18.68;100.00
54262;BME280;40174;52.364;6.452;2023-08-17T08:45:46;101870.22;;;18.68;100.00
54262;BME280;40174;52.364;6.452;2023-08-17T08:48:18;101872.97;;;18.77;100.00
54262;BME280;40174;52.364;6.452;2023-08-17T08:50:46;101871.28;;;18.76;100.00
54262;BME280;40174;52.364;6.452;2023-08-17T08:53:14;101865.53;;;18.70;100.00
54262;BME280;40174;52.364;6.452;2023-08-17T08:55:45;101870.66;;;18.64;100.00
54262;BME280;40174;52.364;6.452;2023-08-17T08:58:15;101857.78;;;18.49;100.00
54262;BME280;40174;52.364;6.452;2023-08-17T09:00:42;101848.91;;;18.49;100.00
54262;BME280;40174;52.364;6.452;2023-08-17T09:03:09;101845.78;;;18.54;100.00
54262;BME280;40174;52.364;6.452;2023-08-17T09:05:39;101850.53;;;18.60;100.00
54262;BME280;40174;52.364;6.452;2023-08-17T09:08:08;101856.91;;;18.59;100.00
54262;BME280;40174;52.364;6.452;2023-08-17T09:10:37;101856.09;;;18.48;100.00
54262;BME280;40174;52.364;6.452;2023-08-17T09:13:04;101865.28;;;18.46;100.00
54262;BME280;40174;52.364;6.452;2023-08-17T09:15:31;101869.59;;;18.57;100.00
54262;BME280;40174;52.364;6.452;2023-08-17T09:17:57;101872.88;;;18.68;100.00
54262;BME280;40174;52.364;6.452;2023-08-17T09:20:39;101866.25;;;18.73;100.00
54262;BME280;40174;52.364;6.452;2023-08-17T09:23:12;101858.22;;;18.73;100.00
54262;BME280;40174;52.364;6.452;2023-08-17T09:25:40;101860.78;;;18.64;100.00
54262;BME280;40174;52.364;6.452;2023-08-17T09:28:08;101860.41;;;18.59;100.00
54262;BME280;40174;52.364;6.452;2023-08-17T09:30:52;101856.09;;;18.48;100.00
54262;BME280;40174;52.364;6.452;2023-08-17T09:33:20;101850.44;;;18.52;100.00
54262;BME280;40174;52.364;6.452;2023-08-17T09:35:48;101851.97;;;18.54;100.00
54262;BME280;40174;52.364;6.452;2023-08-17T09:38:15;101849.84;;;18.58;100.00
54262;BME280;40174;52.364;6.452;2023-08-17T09:40:42;101855.44;;;18.64;100.00
54262;BME280;40174;52.364;6.452;2023-08-17T09:43:09;101852.75;;;18.64;100.00
54262;BME280;40174;52.364;6.452;2023-08-17T09:45:37;101848.41;;;18.63;100.00
54262;BME280;40174;52.364;6.452;2023-08-17T09:48:04;101847.25;;;18.66;100.00
54262;BME280;40174;52.364;6.452;2023-08-17T09:50:31;101848.78;;;18.68;100.00
54262;BME280;40174;52.364;6.452;2023-08-17T09:53:01;101844.72;;;18.64;100.00
54262;BME280;40174;52.364;6.452;2023-08-17T09:55:30;101846.25;;;18.67;100.00
54262;BME280;40174;52.364;6.452;2023-08-17T09:57:57;101850.19;;;18.73;100.00
54262;BME280;40174;52.364;6.452;2023-08-17T10:00:24;101842.44;;;18.69;100.00
54262;BME280;40174;52.364;6.452;2023-08-17T10:02:52;101845.78;;;18.72;100.00
54262;BME280;40174;52.364;6.452;2023-08-17T10:05:19;101847.31;;;18.74;100.00
54262;BME280;40174;52.364;6.452;2023-08-17T10:07:52;101850.63;;;18.68;100.00
54262;BME280;40174;52.364;6.452;2023-08-17T10:10:24;101846.25;;;18.67;100.00
54262;BME280;40174;52.364;6.452;2023-08-17T10:12:56;101837.25;;;18.68;100.00
54262;BME280;40174;52.364;6.452;2023-08-17T10:15:25;101841.44;;;18.70;100.00
54262;BME280;40174;52.364;6.452;2023-08-17T10:18:15;101834.25;;;18.71;100.00
54262;BME280;40174;52.364;6.452;2023-08-17T10:20:51;101833.09;;;18.74;100.00
54262;BME280;40174;52.364;6.452;2023-08-17T10:23:22;101829.91;;;18.70;100.00
54262;BME280;40174;52.364;6.452;2023-08-17T10:25:52;101826.91;;;18.73;100.00
54262;BME280;40174;52.364;6.452;2023-08-17T10:28:19;101821.69;;;18.72;100.00
54262;BME280;40174;52.364;6.452;2023-08-17T10:30:48;101816.19;;;18.73;100.00
54262;BME280;40174;52.364;6.452;2023-08-17T10:33:15;101812.94;;;18.79;100.00
54262;BME280;40174;52.364;6.452;2023-08-17T10:35:42;101817.16;;;18.82;100.00
54262;BME280;40174;52.364;6.452;2023-08-17T10:38:10;101809.50;;;18.87;100.00
54262;BME280;40174;52.364;6.452;2023-08-17T10:40:40;101819.44;;;18.95;100.00
54262;BME280;40174;52.364;6.452;2023-08-17T10:43:09;101807.47;;;19.07;100.00
54262;BME280;40174;52.364;6.452;2023-08-17T10:45:37;101819.44;;;19.13;100.00
54262;BME280;40174;52.364;6.452;2023-08-17T10:48:25;101805.56;;;19.17;100.00
54262;BME280;40174;52.364;6.452;2023-08-17T10:51:04;101819.31;;;19.22;100.00
54262;BME280;40174;52.364;6.452;2023-08-17T10:53:35;101814.19;;;19.29;100.00
54262;BME280;40174;52.364;6.452;2023-08-17T10:56:07;101812.19;;;19.31;100.00
54262;BME280;40174;52.364;6.452;2023-08-17T10:58:35;101811.56;;;19.37;100.00
54262;BME280;40174;52.364;6.452;2023-08-17T11:01:02;101813.59;;;19.43;100.00
54262;BME280;40174;52.364;6.452;2023-08-17T11:03:29;101805.25;;;19.46;100.00
54262;BME280;40174;52.364;6.452;2023-08-17T11:05:56;101817.03;;;19.53;100.00
54262;BME280;40174;52.364;6.452;2023-08-17T11:08:28;101819.28;;;19.40;100.00
54262;BME280;40174;52.364;6.452;2023-08-17T11:11:01;101831.69;;;19.41;100.00
54262;BME280;40174;52.364;6.452;2023-08-17T11:13:28;101819.28;;;19.40;100.00
54262;BME280;40174;52.364;6.452;2023-08-17T11:15:58;101820.59;;;19.36;100.00
54262;BME280;40174;52.364;6.452;2023-08-17T11:18:25;101811.56;;;19.37;100.00
54262;BME280;40174;52.364;6.452;2023-08-17T11:20:53;101814.75;;;19.41;100.00
54262;BME280;40174;52.364;6.452;2023-08-17T11:23:21;101818.81;;;19.45;100.00
54262;BME280;40174;52.364;6.452;2023-08-17T11:25:49;101811.03;;;19.34;100.00
54262;BME280;40174;52.364;6.452;2023-08-17T11:28:16;101818.13;;;19.43;100.00
54262;BME280;40174;52.364;6.452;2023-08-17T11:30:43;101814.28;;;19.45;100.00
54262;BME280;40174;52.364;6.452;2023-08-17T11:33:11;101813.31;;;19.46;100.00
54262;BME280;40174;52.364;6.452;2023-08-17T11:35:38;101814.97;;;19.47;100.00
54262;BME280;40174;52.364;6.452;2023-08-17T11:38:06;101821.38;;;19.55;100.00
54262;BME280;40174;52.364;6.452;2023-08-17T11:40:33;101812.28;;;19.47;100.00
54262;BME280;40174;52.364;6.452;2023-08-17T11:43:00;101811.66;;;19.53;100.00
54262;BME280;40174;52.364;6.452;2023-08-17T11:45:27;101812.84;;;19.59;100.00
54262;BME280;40174;52.364;6.452;2023-08-17T11:47:53;101816.06;;;19.63;100.00
54262;BME280;40174;52.364;6.452;2023-08-17T11:50:22;101815.59;;;19.67;100.00
54262;BME280;40174;52.364;6.452;2023-08-17T11:52:50;101812.22;;;19.65;100.00
54262;BME280;40174;52.364;6.452;2023-08-17T11:55:17;101814.72;;;19.59;100.00
54262;BME280;40174;52.364;6.452;2023-08-17T11:57:45;101815.25;;;19.62;100.00
54262;BME280;40174;52.364;6.452;2023-08-17T12:00:17;101807.69;;;19.66;100.00
54262;BME280;40174;52.364;6.452;2023-08-17T12:02:47;101800.53;;;19.66;100.00
54262;BME280;40174;52.364;6.452;2023-08-17T12:05:14;101799.84;;;19.64;100.00
54262;BME280;40174;52.364;6.452;2023-08-17T12:07:46;101800.00;;;19.63;100.00
54262;BME280;40174;52.364;6.452;2023-08-17T12:10:13;101797.84;;;19.66;100.00
54262;BME280;40174;52.364;6.452;2023-08-17T12:12:39;101790.19;;;19.71;100.00
54262;BME280;40174;52.364;6.452;2023-08-17T12:15:07;101803.25;;;19.75;100.00
54262;BME280;40174;52.364;6.452;2023-08-17T12:17:35;101794.72;;;19.71;100.00
54262;BME280;40174;52.364;6.452;2023-08-17T12:20:08;101798.56;;;19.77;100.00
54262;BME280;40174;52.364;6.452;2023-08-17T12:22:34;101801.78;;;19.80;100.00
54262;BME280;40174;52.364;6.452;2023-08-17T12:25:03;101799.63;;;19.84;100.00
54262;BME280;40174;52.364;6.452;2023-08-17T12:27:31;101809.16;;;19.78;100.00
54262;BME280;40174;52.364;6.452;2023-08-17T12:29:58;101805.78;;;19.76;100.00
54262;BME280;40174;52.364;6.452;2023-08-17T12:32:25;101802.28;;;19.76;100.00
54262;BME280;40174;52.364;6.452;2023-08-17T12:34:52;101803.78;;;19.78;100.00
54262;BME280;40174;52.364;6.452;2023-08-17T12:37:19;101800.44;;;19.76;100.00
54262;BME280;40174;52.364;6.452;2023-08-17T12:39:47;101796.44;;;19.80;100.00
54262;BME280;40174;52.364;6.452;2023-08-17T12:42:15;101804.47;;;19.80;100.00
54262;BME280;40174;52.364;6.452;2023-08-17T12:44:43;101805.47;;;19.79;100.00